createdAt,value
2017-06-22T00:00:05.053Z,0
2017-06-22T00:01:05.630Z,0
2017-06-22T00:02:06.208Z,0
2017-06-22T00:03:06.786Z,0
2017-06-22T00:04:07.364Z,0
2017-06-22T00:05:07.941Z,0
2017-06-22T00:06:08.519Z,0
2017-06-22T00:07:09.097Z,0
2017-06-22T00:08:09.675Z,0
2017-06-22T00:09:10.253Z,0
2017-06-22T00:10:10.831Z,0
2017-06-22T00:11:11.410Z,0
2017-06-22T00:12:11.987Z,0
2017-06-22T00:13:12.565Z,0
2017-06-22T00:14:13.155Z,0
2017-06-22T00:15:13.733Z,0
2017-06-22T00:16:14.313Z,0
2017-06-22T00:17:14.890Z,0
2017-06-22T00:18:15.670Z,0
2017-06-22T00:19:16.260Z,0
2017-06-22T00:20:16.850Z,0
2017-06-22T00:21:17.430Z,0
2017-06-22T00:22:18.011Z,0
2017-06-22T00:23:18.588Z,0
2017-06-22T00:24:19.166Z,0
2017-06-22T00:25:19.746Z,0
2017-06-22T00:26:20.323Z,0
2017-06-22T00:27:20.902Z,0
2017-06-22T00:28:21.479Z,0
2017-06-22T00:29:22.059Z,0
2017-06-22T00:30:22.636Z,0
2017-06-22T00:31:23.216Z,0
2017-06-22T00:32:23.793Z,0
2017-06-22T00:33:24.571Z,0
2017-06-22T00:34:25.149Z,0
2017-06-22T00:35:25.728Z,0
2017-06-22T00:36:26.309Z,0
2017-06-22T00:37:26.888Z,0
2017-06-22T00:38:27.466Z,0
2017-06-22T00:39:28.045Z,0
2017-06-22T00:40:28.632Z,0
2017-06-22T00:41:29.210Z,0
2017-06-22T00:42:29.786Z,0
2017-06-22T00:43:30.364Z,0
2017-06-22T00:44:30.942Z,0
2017-06-22T00:45:31.519Z,0
2017-06-22T00:46:32.096Z,0
2017-06-22T00:47:32.674Z,0
2017-06-22T00:48:33.451Z,0
2017-06-22T00:49:34.030Z,0
2017-06-22T00:50:34.608Z,0
2017-06-22T00:51:35.187Z,0
2017-06-22T00:52:35.763Z,0
2017-06-22T00:53:36.342Z,0
2017-06-22T00:54:36.922Z,0
2017-06-22T00:55:37.508Z,0
2017-06-22T00:56:38.086Z,0
2017-06-22T00:57:38.663Z,0
2017-06-22T00:58:39.241Z,0
2017-06-22T00:59:39.819Z,0
2017-06-22T01:00:40.397Z,0
2017-06-22T01:01:40.974Z,0
2017-06-22T01:02:41.552Z,0
2017-06-22T01:03:42.128Z,0
2017-06-22T01:04:42.706Z,0
2017-06-22T01:05:43.285Z,0
2017-06-22T01:06:43.862Z,0
2017-06-22T01:07:44.440Z,0
2017-06-22T01:08:45.017Z,0
2017-06-22T01:09:45.595Z,0
2017-06-22T01:10:46.172Z,0
2017-06-22T01:11:46.751Z,0
2017-06-22T01:12:47.328Z,0
2017-06-22T01:13:47.907Z,0
2017-06-22T01:14:48.487Z,0
2017-06-22T01:15:49.065Z,0
2017-06-22T01:16:49.645Z,0
2017-06-22T01:17:50.224Z,0
2017-06-22T01:18:51.003Z,0
2017-06-22T01:19:51.580Z,0
2017-06-22T01:20:52.158Z,0
2017-06-22T01:21:52.736Z,0
2017-06-22T01:22:53.317Z,0
2017-06-22T01:23:53.892Z,0
2017-06-22T01:24:54.469Z,0
2017-06-22T01:25:55.047Z,0
2017-06-22T01:26:55.625Z,0
2017-06-22T01:27:56.202Z,0
2017-06-22T01:28:56.781Z,0
2017-06-22T01:29:57.358Z,0
2017-06-22T01:30:57.937Z,0
2017-06-22T01:31:58.514Z,0
2017-06-22T01:32:59.092Z,0
2017-06-22T01:33:59.670Z,0
2017-06-22T01:35:00.260Z,0
2017-06-22T01:36:00.838Z,0
2017-06-22T01:37:01.418Z,0
2017-06-22T01:38:01.994Z,0
2017-06-22T01:39:02.573Z,0
2017-06-22T01:40:03.151Z,0
2017-06-22T01:41:03.730Z,0
2017-06-22T01:42:04.307Z,0
2017-06-22T01:43:04.885Z,0
2017-06-22T01:44:05.463Z,0
2017-06-22T01:45:06.040Z,0
2017-06-22T01:46:06.618Z,0
2017-06-22T01:47:07.208Z,0
2017-06-22T01:48:07.789Z,0
2017-06-22T01:49:08.367Z,0
2017-06-22T01:50:08.948Z,0
2017-06-22T01:51:09.523Z,0
2017-06-22T01:52:10.102Z,0
2017-06-22T01:53:10.679Z,0
2017-06-22T01:54:11.257Z,0
2017-06-22T01:55:11.835Z,0
2017-06-22T01:56:12.412Z,0
2017-06-22T01:57:13.005Z,0
2017-06-22T01:58:13.582Z,0
2017-06-22T01:59:14.160Z,0
2017-06-22T02:00:14.739Z,0
2017-06-22T02:01:15.318Z,0
2017-06-22T02:02:15.896Z,0
2017-06-22T02:03:16.486Z,0
2017-06-22T02:04:17.065Z,0
2017-06-22T02:05:17.643Z,0
2017-06-22T02:06:18.223Z,0
2017-06-22T02:07:18.801Z,0
2017-06-22T02:08:19.381Z,0
2017-06-22T02:09:19.958Z,0
2017-06-22T02:10:20.537Z,0
2017-06-22T02:11:21.115Z,0
2017-06-22T02:12:21.694Z,0
2017-06-22T02:13:22.272Z,0
2017-06-22T02:14:22.850Z,0
2017-06-22T02:15:23.439Z,0
2017-06-22T02:16:24.017Z,0
2017-06-22T02:17:24.599Z,0
2017-06-22T02:18:25.173Z,0
2017-06-22T02:19:25.763Z,0
2017-06-22T02:20:26.341Z,0
2017-06-22T02:21:26.919Z,0
2017-06-22T02:22:27.509Z,0
2017-06-22T02:23:28.087Z,0
2017-06-22T02:24:28.665Z,0
2017-06-22T02:25:29.242Z,0
2017-06-22T02:26:29.820Z,0
2017-06-22T02:27:30.397Z,0
2017-06-22T02:28:30.975Z,0
2017-06-22T02:29:31.554Z,0
2017-06-22T02:30:32.131Z,0
2017-06-22T02:31:32.708Z,0
2017-06-22T02:32:33.299Z,0
2017-06-22T02:33:33.877Z,0
2017-06-22T02:34:34.455Z,0
2017-06-22T02:35:35.034Z,0
2017-06-22T02:36:35.611Z,0
2017-06-22T02:37:36.191Z,0
2017-06-22T02:38:36.767Z,0
2017-06-22T02:39:37.351Z,0
2017-06-22T02:40:37.923Z,0
2017-06-22T02:41:38.501Z,0
2017-06-22T02:42:39.078Z,0
2017-06-22T02:43:39.655Z,0
2017-06-22T02:44:40.232Z,0
2017-06-22T02:45:40.810Z,0
2017-06-22T02:46:41.387Z,0
2017-06-22T02:47:41.964Z,4
2017-06-22T02:48:42.542Z,4
2017-06-22T02:49:43.119Z,0
2017-06-22T02:50:43.698Z,0
2017-06-22T02:51:44.274Z,0
2017-06-22T02:52:44.851Z,4
2017-06-22T02:53:45.429Z,4
2017-06-22T02:54:46.006Z,4
2017-06-22T02:55:46.596Z,4
2017-06-22T02:56:47.175Z,0
2017-06-22T02:57:47.752Z,4
2017-06-22T02:58:48.332Z,4
2017-06-22T02:59:48.910Z,8
2017-06-22T03:00:49.487Z,4
2017-06-22T03:01:50.066Z,8
2017-06-22T03:02:50.643Z,4
2017-06-22T03:03:51.222Z,8
2017-06-22T03:04:51.799Z,8
2017-06-22T03:05:52.376Z,8
2017-06-22T03:06:52.967Z,12
2017-06-22T03:07:53.547Z,8
2017-06-22T03:08:54.124Z,8
2017-06-22T03:09:54.705Z,12
2017-06-22T03:10:55.287Z,12
2017-06-22T03:11:55.862Z,16
2017-06-22T03:12:56.454Z,12
2017-06-22T03:13:57.032Z,16
2017-06-22T03:14:57.613Z,16
2017-06-22T03:15:58.192Z,16
2017-06-22T03:16:58.770Z,16
2017-06-22T03:17:59.348Z,20
2017-06-22T03:18:59.928Z,20
2017-06-22T03:20:00.508Z,20
2017-06-22T03:21:01.097Z,20
2017-06-22T03:22:01.679Z,24
2017-06-22T03:23:02.257Z,24
2017-06-22T03:24:02.836Z,28
2017-06-22T03:25:03.414Z,28
2017-06-22T03:26:03.993Z,32
2017-06-22T03:27:04.571Z,32
2017-06-22T03:28:05.155Z,32
2017-06-22T03:29:05.741Z,36
2017-06-22T03:30:06.320Z,36
2017-06-22T03:31:06.898Z,40
2017-06-22T03:32:07.477Z,36
2017-06-22T03:33:08.056Z,40
2017-06-22T03:34:08.635Z,44
2017-06-22T03:35:09.214Z,44
2017-06-22T03:36:09.797Z,48
2017-06-22T03:37:10.375Z,48
2017-06-22T03:38:10.956Z,52
2017-06-22T03:39:11.538Z,56
2017-06-22T03:40:12.114Z,60
2017-06-22T03:41:12.693Z,60
2017-06-22T03:42:13.272Z,64
2017-06-22T03:43:13.850Z,68
2017-06-22T03:44:14.428Z,68
2017-06-22T03:45:15.005Z,72
2017-06-22T03:46:15.586Z,72
2017-06-22T03:47:16.167Z,76
2017-06-22T03:48:16.746Z,76
2017-06-22T03:49:17.327Z,80
2017-06-22T03:50:17.905Z,80
2017-06-22T03:51:18.485Z,80
2017-06-22T03:52:19.063Z,80
2017-06-22T03:53:19.642Z,84
2017-06-22T03:54:20.221Z,88
2017-06-22T03:55:20.799Z,84
2017-06-22T03:56:21.378Z,88
2017-06-22T03:57:21.956Z,88
2017-06-22T03:58:22.537Z,92
2017-06-22T03:59:23.117Z,92
2017-06-22T04:00:23.698Z,96
2017-06-22T04:01:24.276Z,96
2017-06-22T04:02:24.857Z,96
2017-06-22T04:03:25.449Z,100
2017-06-22T04:04:26.035Z,100
2017-06-22T04:05:26.610Z,104
2017-06-22T04:06:27.189Z,108
2017-06-22T04:07:27.769Z,108
2017-06-22T04:08:28.365Z,108
2017-06-22T04:09:28.941Z,112
2017-06-22T04:10:29.521Z,116
2017-06-22T04:11:30.101Z,116
2017-06-22T04:12:30.681Z,116
2017-06-22T04:13:31.260Z,116
2017-06-22T04:14:31.841Z,120
2017-06-22T04:15:32.423Z,120
2017-06-22T04:16:33.003Z,128
2017-06-22T04:17:33.584Z,128
2017-06-22T04:18:34.163Z,128
2017-06-22T04:19:34.743Z,132
2017-06-22T04:20:35.327Z,136
2017-06-22T04:21:35.904Z,140
2017-06-22T04:22:36.486Z,140
2017-06-22T04:23:37.065Z,148
2017-06-22T04:24:37.647Z,152
2017-06-22T04:25:38.226Z,160
2017-06-22T04:26:38.806Z,164
2017-06-22T04:27:39.387Z,168
2017-06-22T04:28:39.967Z,172
2017-06-22T04:29:40.550Z,176
2017-06-22T04:30:41.129Z,180
2017-06-22T04:31:41.711Z,180
2017-06-22T04:32:42.291Z,192
2017-06-22T04:33:42.871Z,196
2017-06-22T04:34:43.450Z,196
2017-06-22T04:35:44.032Z,200
2017-06-22T04:36:44.616Z,204
2017-06-22T04:37:45.195Z,216
2017-06-22T04:38:45.778Z,224
2017-06-22T04:39:46.358Z,228
2017-06-22T04:40:46.939Z,244
2017-06-22T04:41:47.522Z,252
2017-06-22T04:42:48.105Z,260
2017-06-22T04:43:48.686Z,268
2017-06-22T04:44:49.267Z,276
2017-06-22T04:45:49.848Z,280
2017-06-22T04:46:50.430Z,284
2017-06-22T04:47:51.013Z,288
2017-06-22T04:48:51.596Z,288
2017-06-22T04:49:52.176Z,292
2017-06-22T04:50:52.758Z,288
2017-06-22T04:51:53.340Z,292
2017-06-22T04:52:53.922Z,284
2017-06-22T04:53:54.505Z,288
2017-06-22T04:54:55.086Z,288
2017-06-22T04:55:55.668Z,288
2017-06-22T04:56:56.250Z,288
2017-06-22T04:57:56.832Z,296
2017-06-22T04:58:57.416Z,300
2017-06-22T04:59:57.996Z,296
2017-06-22T05:00:58.577Z,296
2017-06-22T05:01:59.170Z,284
2017-06-22T05:02:59.752Z,288
2017-06-22T05:04:00.333Z,288
2017-06-22T05:05:00.916Z,292
2017-06-22T05:06:01.497Z,276
2017-06-22T05:07:02.090Z,288
2017-06-22T05:08:02.673Z,304
2017-06-22T05:09:03.255Z,316
2017-06-22T05:10:03.836Z,324
2017-06-22T05:11:04.421Z,292
2017-06-22T05:12:05.011Z,296
2017-06-22T05:13:05.592Z,296
2017-06-22T05:14:06.174Z,292
2017-06-22T05:15:06.758Z,296
2017-06-22T05:16:07.339Z,332
2017-06-22T05:17:07.920Z,340
2017-06-22T05:18:08.502Z,332
2017-06-22T05:19:09.084Z,348
2017-06-22T05:20:09.666Z,352
2017-06-22T05:21:10.250Z,380
2017-06-22T05:22:10.829Z,388
2017-06-22T05:23:11.412Z,392
2017-06-22T05:24:11.993Z,396
2017-06-22T05:25:12.588Z,400
2017-06-22T05:26:13.169Z,404
2017-06-22T05:27:13.750Z,404
2017-06-22T05:28:14.332Z,392
2017-06-22T05:29:14.915Z,420
2017-06-22T05:30:15.496Z,432
2017-06-22T05:31:16.079Z,432
2017-06-22T05:32:16.660Z,436
2017-06-22T05:33:17.242Z,440
2017-06-22T05:34:17.835Z,444
2017-06-22T05:35:18.419Z,448
2017-06-22T05:36:18.998Z,452
2017-06-22T05:37:19.583Z,452
2017-06-22T05:38:20.167Z,456
2017-06-22T05:39:20.747Z,460
2017-06-22T05:40:21.328Z,460
2017-06-22T05:41:21.909Z,464
2017-06-22T05:42:22.492Z,464
2017-06-22T05:43:23.078Z,468
2017-06-22T05:44:23.667Z,468
2017-06-22T05:45:24.260Z,476
2017-06-22T05:46:24.843Z,476
2017-06-22T05:47:25.435Z,480
2017-06-22T05:48:26.017Z,480
2017-06-22T05:49:26.598Z,488
2017-06-22T05:50:27.181Z,488
2017-06-22T05:51:27.764Z,492
2017-06-22T05:52:28.346Z,496
2017-06-22T05:53:28.929Z,500
2017-06-22T05:54:29.510Z,500
2017-06-22T05:55:30.103Z,504
2017-06-22T05:56:30.697Z,508
2017-06-22T05:57:31.281Z,516
2017-06-22T05:58:31.886Z,520
2017-06-22T05:59:32.444Z,528
2017-06-22T06:00:33.027Z,536
2017-06-22T06:01:33.609Z,536
2017-06-22T06:02:34.195Z,528
2017-06-22T06:03:34.776Z,536
2017-06-22T06:04:35.357Z,532
2017-06-22T06:05:35.938Z,536
2017-06-22T06:06:36.521Z,540
2017-06-22T06:07:37.105Z,544
2017-06-22T06:08:37.690Z,544
2017-06-22T06:09:38.268Z,536
2017-06-22T06:10:38.850Z,536
2017-06-22T06:11:39.433Z,548
2017-06-22T06:12:40.016Z,548
2017-06-22T06:13:40.598Z,548
2017-06-22T06:14:41.181Z,540
2017-06-22T06:15:41.763Z,544
2017-06-22T06:16:42.345Z,544
2017-06-22T06:17:42.929Z,560
2017-06-22T06:18:43.511Z,560
2017-06-22T06:19:44.105Z,560
2017-06-22T06:20:44.690Z,568
2017-06-22T06:21:45.274Z,560
2017-06-22T06:22:45.855Z,576
2017-06-22T06:23:46.437Z,576
2017-06-22T06:24:47.021Z,580
2017-06-22T06:25:47.605Z,584
2017-06-22T06:26:48.187Z,584
2017-06-22T06:27:48.770Z,588
2017-06-22T06:28:49.352Z,588
2017-06-22T06:29:49.935Z,588
2017-06-22T06:30:50.519Z,592
2017-06-22T06:31:51.101Z,596
2017-06-22T06:32:51.684Z,596
2017-06-22T06:33:52.267Z,600
2017-06-22T06:34:52.849Z,608
2017-06-22T06:35:53.433Z,608
2017-06-22T06:36:54.017Z,612
2017-06-22T06:37:54.598Z,616
2017-06-22T06:38:55.182Z,624
2017-06-22T06:39:55.762Z,624
2017-06-22T06:40:56.345Z,624
2017-06-22T06:41:56.927Z,632
2017-06-22T06:42:57.511Z,632
2017-06-22T06:43:58.092Z,632
2017-06-22T06:44:58.674Z,636
2017-06-22T06:45:59.258Z,636
2017-06-22T06:46:59.840Z,616
2017-06-22T06:48:00.434Z,608
2017-06-22T06:49:01.018Z,632
2017-06-22T06:50:01.600Z,648
2017-06-22T06:51:02.183Z,656
2017-06-22T06:52:02.765Z,656
2017-06-22T06:53:03.348Z,652
2017-06-22T06:54:03.932Z,652
2017-06-22T06:55:04.513Z,640
2017-06-22T06:56:05.095Z,644
2017-06-22T06:57:05.677Z,656
2017-06-22T06:58:06.258Z,664
2017-06-22T06:59:06.842Z,676
2017-06-22T07:00:07.424Z,684
2017-06-22T07:01:08.018Z,696
2017-06-22T07:02:08.602Z,688
2017-06-22T07:03:09.183Z,696
2017-06-22T07:04:09.766Z,704
2017-06-22T07:05:10.351Z,728
2017-06-22T07:06:10.935Z,744
2017-06-22T07:07:11.517Z,736
2017-06-22T07:08:12.096Z,704
2017-06-22T07:09:12.678Z,732
2017-06-22T07:10:13.261Z,748
2017-06-22T07:11:13.854Z,744
2017-06-22T07:12:14.437Z,724
2017-06-22T07:13:15.018Z,712
2017-06-22T07:14:15.601Z,724
2017-06-22T07:15:16.184Z,736
2017-06-22T07:16:16.766Z,732
2017-06-22T07:17:17.348Z,752
2017-06-22T07:18:17.930Z,744
2017-06-22T07:19:18.525Z,740
2017-06-22T07:20:19.106Z,752
2017-06-22T07:21:19.700Z,760
2017-06-22T07:22:20.295Z,756
2017-06-22T07:23:20.878Z,756
2017-06-22T07:24:21.471Z,768
2017-06-22T07:25:22.079Z,772
2017-06-22T07:26:22.636Z,768
2017-06-22T07:27:23.218Z,736
2017-06-22T07:28:23.799Z,764
2017-06-22T07:29:24.394Z,776
2017-06-22T07:30:24.976Z,776
2017-06-22T07:31:25.557Z,772
2017-06-22T07:32:26.140Z,788
2017-06-22T07:33:26.724Z,764
2017-06-22T07:34:27.306Z,776
2017-06-22T07:35:27.889Z,776
2017-06-22T07:36:28.470Z,764
2017-06-22T07:37:29.054Z,756
2017-06-22T07:38:29.637Z,740
2017-06-22T07:39:30.219Z,712
2017-06-22T07:40:30.813Z,652
2017-06-22T07:41:31.397Z,552
2017-06-22T07:42:31.978Z,740
2017-06-22T07:43:32.560Z,732
2017-06-22T07:44:33.144Z,692
2017-06-22T07:45:33.727Z,708
2017-06-22T07:46:34.309Z,732
2017-06-22T07:47:34.891Z,756
2017-06-22T07:48:35.474Z,736
2017-06-22T07:49:36.068Z,744
2017-06-22T07:50:36.651Z,736
2017-06-22T07:51:37.232Z,744
2017-06-22T07:52:37.828Z,740
2017-06-22T07:53:38.409Z,736
2017-06-22T07:54:38.990Z,736
2017-06-22T07:55:39.573Z,744
2017-06-22T07:56:40.155Z,740
2017-06-22T07:57:40.740Z,744
2017-06-22T07:58:41.321Z,720
2017-06-22T07:59:41.916Z,716
2017-06-22T08:00:42.502Z,728
2017-06-22T08:01:43.096Z,752
2017-06-22T08:02:43.688Z,748
2017-06-22T08:03:44.272Z,740
2017-06-22T08:04:44.856Z,752
2017-06-22T08:05:45.438Z,752
2017-06-22T08:06:46.021Z,748
2017-06-22T08:07:46.603Z,748
2017-06-22T08:08:47.186Z,740
2017-06-22T08:09:47.770Z,752
2017-06-22T08:10:48.354Z,764
2017-06-22T08:11:48.937Z,768
2017-06-22T08:12:49.519Z,768
2017-06-22T08:13:50.103Z,772
2017-06-22T08:14:50.687Z,772
2017-06-22T08:15:51.269Z,776
2017-06-22T08:16:51.852Z,780
2017-06-22T08:17:52.435Z,780
2017-06-22T08:18:53.020Z,780
2017-06-22T08:19:53.602Z,780
2017-06-22T08:20:54.185Z,780
2017-06-22T08:21:54.769Z,780
2017-06-22T08:22:55.351Z,780
2017-06-22T08:23:55.934Z,780
2017-06-22T08:24:56.519Z,788
2017-06-22T08:25:57.103Z,792
2017-06-22T08:26:57.687Z,796
2017-06-22T08:27:58.271Z,796
2017-06-22T08:28:58.853Z,800
2017-06-22T08:29:59.438Z,800
2017-06-22T08:31:00.022Z,808
2017-06-22T08:32:00.607Z,808
2017-06-22T08:33:01.189Z,812
2017-06-22T08:34:01.772Z,812
2017-06-22T08:35:02.357Z,820
2017-06-22T08:36:02.941Z,816
2017-06-22T08:37:03.527Z,820
2017-06-22T08:38:04.109Z,824
2017-06-22T08:39:04.693Z,828
2017-06-22T08:40:05.278Z,824
2017-06-22T08:41:05.862Z,824
2017-06-22T08:42:06.446Z,828
2017-06-22T08:43:07.030Z,828
2017-06-22T08:44:07.613Z,828
2017-06-22T08:45:08.209Z,840
2017-06-22T08:46:08.792Z,840
2017-06-22T08:47:09.375Z,840
2017-06-22T08:48:09.961Z,832
2017-06-22T08:49:10.544Z,828
2017-06-22T08:50:11.130Z,828
2017-06-22T08:51:11.713Z,832
2017-06-22T08:52:12.297Z,836
2017-06-22T08:53:12.881Z,828
2017-06-22T08:54:13.467Z,832
2017-06-22T08:55:14.062Z,828
2017-06-22T08:56:14.648Z,824
2017-06-22T08:57:15.232Z,820
2017-06-22T08:58:15.817Z,832
2017-06-22T08:59:16.412Z,828
2017-06-22T09:00:16.996Z,836
2017-06-22T09:01:17.580Z,840
2017-06-22T09:02:18.179Z,844
2017-06-22T09:03:18.761Z,852
2017-06-22T09:04:19.345Z,860
2017-06-22T09:05:19.928Z,852
2017-06-22T09:06:20.523Z,872
2017-06-22T09:07:21.107Z,876
2017-06-22T09:08:21.690Z,892
2017-06-22T09:09:22.275Z,904
2017-06-22T09:10:22.861Z,888
2017-06-22T09:11:23.459Z,888
2017-06-22T09:12:24.043Z,888
2017-06-22T09:13:24.628Z,892
2017-06-22T09:14:25.212Z,888
2017-06-22T09:15:25.796Z,900
2017-06-22T09:16:26.383Z,864
2017-06-22T09:17:26.967Z,916
2017-06-22T09:18:27.552Z,888
2017-06-22T09:19:28.136Z,892
2017-06-22T09:20:28.720Z,700
2017-06-22T09:21:29.306Z,888
2017-06-22T09:22:29.891Z,888
2017-06-22T09:23:30.488Z,900
2017-06-22T09:24:31.073Z,912
2017-06-22T09:25:31.657Z,900
2017-06-22T09:26:32.242Z,896
2017-06-22T09:27:32.826Z,936
2017-06-22T09:28:33.409Z,944
2017-06-22T09:29:33.995Z,936
2017-06-22T09:30:34.579Z,960
2017-06-22T09:31:35.164Z,960
2017-06-22T09:32:35.749Z,960
2017-06-22T09:33:36.332Z,948
2017-06-22T09:34:36.919Z,936
2017-06-22T09:35:37.503Z,972
2017-06-22T09:36:38.089Z,976
2017-06-22T09:37:38.674Z,920
2017-06-22T09:38:39.257Z,936
2017-06-22T09:39:39.843Z,968
2017-06-22T09:40:40.430Z,928
2017-06-22T09:41:41.014Z,956
2017-06-22T09:42:41.598Z,860
2017-06-22T09:43:42.183Z,960
2017-06-22T09:44:42.768Z,968
2017-06-22T09:45:43.354Z,984
2017-06-22T09:46:43.940Z,952
2017-06-22T09:47:44.524Z,972
2017-06-22T09:48:45.109Z,968
2017-06-22T09:49:45.695Z,900
2017-06-22T09:50:46.291Z,960
2017-06-22T09:51:46.876Z,968
2017-06-22T09:52:47.463Z,968
2017-06-22T09:53:48.046Z,968
2017-06-22T09:54:48.643Z,972
2017-06-22T09:55:49.230Z,984
2017-06-22T09:56:49.814Z,980
2017-06-22T09:57:50.398Z,988
2017-06-22T09:58:50.983Z,980
2017-06-22T09:59:51.568Z,968
2017-06-22T10:00:52.154Z,984
2017-06-22T10:01:52.739Z,976
2017-06-22T10:02:53.324Z,992
2017-06-22T10:03:53.909Z,1012
2017-06-22T10:04:54.495Z,1012
2017-06-22T10:05:55.083Z,1028
2017-06-22T10:06:55.668Z,1024
2017-06-22T10:07:56.253Z,1024
2017-06-22T10:08:56.840Z,1016
2017-06-22T10:09:57.426Z,1008
2017-06-22T10:10:58.013Z,1000
2017-06-22T10:11:58.598Z,980
2017-06-22T10:12:59.183Z,1008
2017-06-22T10:13:59.771Z,1048
2017-06-22T10:15:00.356Z,1048
2017-06-22T10:16:00.941Z,976
2017-06-22T10:17:01.527Z,1008
2017-06-22T10:18:02.113Z,1028
2017-06-22T10:19:02.700Z,1076
2017-06-22T10:20:03.288Z,1056
2017-06-22T10:21:03.905Z,1092
2017-06-22T10:22:04.460Z,1132
2017-06-22T10:23:05.048Z,1144
2017-06-22T10:24:05.646Z,1164
2017-06-22T10:25:06.235Z,1164
2017-06-22T10:26:06.820Z,1180
2017-06-22T10:27:07.405Z,1172
2017-06-22T10:28:07.992Z,1124
2017-06-22T10:29:08.578Z,1040
2017-06-22T10:30:09.164Z,1032
2017-06-22T10:31:09.750Z,1076
2017-06-22T10:32:10.337Z,1048
2017-06-22T10:33:10.924Z,1016
2017-06-22T10:34:11.510Z,1008
2017-06-22T10:35:12.095Z,1072
2017-06-22T10:36:12.683Z,1100
2017-06-22T10:37:13.269Z,1052
2017-06-22T10:38:13.856Z,1024
2017-06-22T10:39:14.440Z,928
2017-06-22T10:40:15.025Z,936
2017-06-22T10:41:15.611Z,948
2017-06-22T10:42:16.197Z,1012
2017-06-22T10:43:16.783Z,1048
2017-06-22T10:44:17.369Z,1024
2017-06-22T10:45:17.955Z,1008
2017-06-22T10:46:18.552Z,1032
2017-06-22T10:47:19.139Z,1036
2017-06-22T10:48:19.724Z,1048
2017-06-22T10:49:20.311Z,1056
2017-06-22T10:50:20.896Z,1092
2017-06-22T10:51:21.481Z,976
2017-06-22T10:52:22.067Z,900
2017-06-22T10:53:22.653Z,1036
2017-06-22T10:54:23.239Z,1072
2017-06-22T10:55:23.825Z,1088
2017-06-22T10:56:24.410Z,1116
2017-06-22T10:57:24.998Z,1144
2017-06-22T10:58:25.584Z,1144
2017-06-22T10:59:26.169Z,1152
2017-06-22T11:00:26.755Z,1116
2017-06-22T11:01:27.341Z,1120
2017-06-22T11:02:27.929Z,1140
2017-06-22T11:03:28.514Z,1116
2017-06-22T11:04:29.099Z,1124
2017-06-22T11:05:29.697Z,1112
2017-06-22T11:06:30.282Z,1104
2017-06-22T11:07:30.869Z,1088
2017-06-22T11:08:31.456Z,1096
2017-06-22T11:09:32.042Z,1076
2017-06-22T11:10:32.627Z,1056
2017-06-22T11:11:33.214Z,1068
2017-06-22T11:12:33.800Z,1092
2017-06-22T11:13:34.387Z,1084
2017-06-22T11:14:34.972Z,1064
2017-06-22T11:15:35.558Z,1044
2017-06-22T11:16:36.145Z,1008
2017-06-22T11:17:36.731Z,1016
2017-06-22T11:18:37.328Z,984
2017-06-22T11:19:37.924Z,1000
2017-06-22T11:20:38.512Z,1020
2017-06-22T11:21:39.096Z,996
2017-06-22T11:22:39.692Z,948
2017-06-22T11:23:40.279Z,972
2017-06-22T11:24:40.866Z,1000
2017-06-22T11:25:41.451Z,1028
2017-06-22T11:26:42.038Z,1068
2017-06-22T11:27:42.623Z,1060
2017-06-22T11:28:43.210Z,1052
2017-06-22T11:29:43.795Z,1048
2017-06-22T11:30:44.382Z,1080
2017-06-22T11:31:44.969Z,1068
2017-06-22T11:32:45.555Z,1096
2017-06-22T11:33:46.140Z,1120
2017-06-22T11:34:46.726Z,1124
2017-06-22T11:35:47.313Z,1156
2017-06-22T11:36:47.900Z,1136
2017-06-22T11:37:48.486Z,1104
2017-06-22T11:38:49.070Z,1112
2017-06-22T11:39:49.658Z,1108
2017-06-22T11:40:50.244Z,1112
2017-06-22T11:41:50.831Z,1108
2017-06-22T11:42:51.428Z,1108
2017-06-22T11:43:52.014Z,1124
2017-06-22T11:44:52.600Z,1136
2017-06-22T11:45:53.188Z,1132
2017-06-22T11:46:53.773Z,1092
2017-06-22T11:47:54.360Z,1172
2017-06-22T11:48:54.948Z,1180
2017-06-22T11:49:55.533Z,1168
2017-06-22T11:50:56.121Z,1184
2017-06-22T11:51:56.707Z,1196
2017-06-22T11:52:57.293Z,1188
2017-06-22T11:53:57.879Z,1180
2017-06-22T11:54:58.466Z,1172
2017-06-22T11:55:59.054Z,1192
2017-06-22T11:56:59.640Z,1208
2017-06-22T11:58:00.239Z,1220
2017-06-22T11:59:00.825Z,1168
2017-06-22T12:00:01.413Z,1244
2017-06-22T12:01:01.999Z,1248
2017-06-22T12:02:02.586Z,1256
2017-06-22T12:03:03.172Z,1256
2017-06-22T12:04:03.769Z,1264
2017-06-22T12:05:04.357Z,1204
2017-06-22T12:06:04.942Z,1188
2017-06-22T12:07:05.529Z,1220
2017-06-22T12:08:06.117Z,1236
2017-06-22T12:09:06.702Z,1268
2017-06-22T12:10:07.292Z,1272
2017-06-22T12:11:07.876Z,1192
2017-06-22T12:12:08.462Z,1136
2017-06-22T12:13:09.048Z,1108
2017-06-22T12:14:09.634Z,1052
2017-06-22T12:15:10.225Z,1224
2017-06-22T12:16:10.809Z,1176
2017-06-22T12:17:11.395Z,1200
2017-06-22T12:18:11.981Z,1244
2017-06-22T12:19:12.579Z,1164
2017-06-22T12:20:13.164Z,1344
2017-06-22T12:21:13.752Z,1352
2017-06-22T12:22:14.340Z,1364
2017-06-22T12:23:14.926Z,1400
2017-06-22T12:24:15.511Z,1384
2017-06-22T12:25:16.100Z,1396
2017-06-22T12:26:16.684Z,1388
2017-06-22T12:27:17.271Z,1372
2017-06-22T12:28:17.857Z,1324
2017-06-22T12:29:18.443Z,1236
2017-06-22T12:30:19.032Z,1200
2017-06-22T12:31:19.618Z,1152
2017-06-22T12:32:20.205Z,1172
2017-06-22T12:33:20.790Z,1260
2017-06-22T12:34:21.377Z,1368
2017-06-22T12:35:21.966Z,1376
2017-06-22T12:36:22.552Z,1364
2017-06-22T12:37:23.138Z,1388
2017-06-22T12:38:23.741Z,1396
2017-06-22T12:39:24.329Z,1344
2017-06-22T12:40:24.942Z,1320
2017-06-22T12:41:25.530Z,1364
2017-06-22T12:42:26.116Z,1348
2017-06-22T12:43:26.704Z,1312
2017-06-22T12:44:27.306Z,1276
2017-06-22T12:45:27.890Z,1280
2017-06-22T12:46:28.476Z,1248
2017-06-22T12:47:29.063Z,1276
2017-06-22T12:48:29.650Z,1400
2017-06-22T12:49:30.239Z,1412
2017-06-22T12:50:30.829Z,1332
2017-06-22T12:51:31.410Z,1300
2017-06-22T12:52:32.009Z,1412
2017-06-22T12:53:32.594Z,1292
2017-06-22T12:54:33.180Z,1344
2017-06-22T12:55:33.769Z,1316
2017-06-22T12:56:34.355Z,1312
2017-06-22T12:57:34.942Z,1216
2017-06-22T12:58:35.541Z,1412
2017-06-22T12:59:36.127Z,1416
2017-06-22T13:00:36.714Z,1348
2017-06-22T13:01:37.302Z,1260
2017-06-22T13:02:37.888Z,1276
2017-06-22T13:03:38.474Z,1372
2017-06-22T13:04:39.061Z,1424
2017-06-22T13:05:39.649Z,1444
2017-06-22T13:06:40.237Z,1464
2017-06-22T13:07:40.823Z,1420
2017-06-22T13:08:41.409Z,1480
2017-06-22T13:09:41.997Z,1484
2017-06-22T13:10:42.585Z,1500
2017-06-22T13:11:43.172Z,1516
2017-06-22T13:12:43.770Z,1544
2017-06-22T13:13:44.356Z,1536
2017-06-22T13:14:44.945Z,1548
2017-06-22T13:15:45.529Z,1528
2017-06-22T13:16:46.117Z,1496
2017-06-22T13:17:46.705Z,1488
2017-06-22T13:18:47.291Z,1484
2017-06-22T13:19:47.878Z,1476
2017-06-22T13:20:48.465Z,1520
2017-06-22T13:21:49.052Z,1524
2017-06-22T13:22:49.639Z,1544
2017-06-22T13:23:50.225Z,1576
2017-06-22T13:24:50.813Z,1576
2017-06-22T13:25:51.402Z,1604
2017-06-22T13:26:51.988Z,1564
2017-06-22T13:27:52.574Z,1576
2017-06-22T13:28:53.165Z,1548
2017-06-22T13:29:53.762Z,1552
2017-06-22T13:30:54.350Z,1572
2017-06-22T13:31:54.937Z,1580
2017-06-22T13:32:55.523Z,1600
2017-06-22T13:33:56.110Z,1604
2017-06-22T13:34:56.698Z,1628
2017-06-22T13:35:57.284Z,1612
2017-06-22T13:36:57.872Z,1668
2017-06-22T13:37:58.459Z,1648
2017-06-22T13:38:59.046Z,1628
2017-06-22T13:39:59.634Z,1596
2017-06-22T13:41:00.221Z,1608
2017-06-22T13:42:00.809Z,1628
2017-06-22T13:43:01.396Z,1576
2017-06-22T13:44:01.984Z,1452
2017-06-22T13:45:02.571Z,1540
2017-06-22T13:46:03.170Z,1540
2017-06-22T13:47:03.756Z,1588
2017-06-22T13:48:04.343Z,1600
2017-06-22T13:49:04.931Z,1584
2017-06-22T13:50:05.518Z,1628
2017-06-22T13:51:06.104Z,1664
2017-06-22T13:52:06.692Z,1720
2017-06-22T13:53:07.278Z,1764
2017-06-22T13:54:07.867Z,1784
2017-06-22T13:55:08.453Z,1832
2017-06-22T13:56:09.039Z,1780
2017-06-22T13:57:09.625Z,1760
2017-06-22T13:58:10.211Z,1752
2017-06-22T13:59:10.800Z,1692
2017-06-22T14:00:11.386Z,1632
2017-06-22T14:01:11.972Z,1560